KLND/LND METAR and TAF weather

Enter ICAO airport designator
Station Type Date Time Source
KLND METAR 2022/11/27 09:53 UTC NOAA

KLND 270953Z AUTO 24009KT 10SM CLR M06/M09 A2992 RMK AO2 SLP160 T10611089


Station Type Date Time Source
KLND Decoded METAR 2022/11/27 09:53 UTC NOAA

LANDER HUNT FIELD, WY, United States (KLND) 42-49N 108-44W 1694M
Nov 27, 2022 - 04:53 AM EST / 2022.11.27 0953 UTC
Wind: from the WSW (240 degrees) at 10 MPH (9 KT):0
Visibility: 10 mile(s):0
Sky conditions: clear
Temperature: 21.0 F (-6.1 C)
Windchill: 10 F (-12 C):1
Dew Point: 16.0 F (-8.9 C)
Relative Humidity: 80%
Pressure (altimeter): 29.92 in. Hg (1013 hPa)
ob: KLND 270953Z AUTO 24009KT 10SM CLR M06/M09 A2992 RMK AO2 SLP160 T10611089
cycle: 10

Station Type Date Time Source
KLND TAF 2022/11/27 06:27 UTC NOAA

TAF KLND 270524Z 2706/2806 VRB05KT P6SM VCFG SCT004 BKN035
FM271000 VRB05KT P6SM VCFG SCT004
FM271500 VRB05KT P6SM SKC
FM272200 25012G20KT P6SM BKN080
FM280500 25014G24KT P6SM BKN080

Example: see airport list